Language: 


Des rapports , des résumés tant et plus, au choix de chacun....


Données Historiques de Météogheer
Journalier Rapport pour Janvier 23, 2017 Unitée:  Les deux    Impériale   Métrique
Suivant Jour »
Journalier Hebdomadaire Mensuel Annuel Sur mesure
  Max: Min: Moyenne:
Température: 35.4 °F /  1.9 °C 24.3 °F /  -4.3 °C 32.4 °F /  0.2 °C
Point de rosée: 34.9 °F /  1.6 °C 22.5 °F /  -5.3 °C 31.6 °F /  -0.2 °C
Humidité: 98% 0% 97%
Vent: 6.5mph /  10.5km/h - 1.6mph /  2.6km/h
Rafales: 7.4mph /  11.9km/h - -
Vent- - WSW
Pression: 30.4 in /  1028.0 hPa 0 in /  0.0 hPa -
Pluie: 0 in /  0.0 mm    
Historical Graphs
 
 
Données tabulaires pour Janvier 23, 2017
Heure Température Point de rosée Pression Vent Vent Rafales Humidité Pluie Taux (Horaire) Conditions
00:04 24.3 °F /  -4.3 °C 22.5 °F /  -5.3 °C 30.3in /  1027.0hPa Calm   2mph /  3.2km/h 93% 0in /  0.0mm
00:09 24.4 °F /  -4.2 °C 22.6 °F /  -5.2 °C 30.3in /  1027.0hPa West 1.1mph /  1.8km/h 2.5mph /  4.0km/h 93% 0in /  0.0mm
00:14 24.6 °F /  -4.1 °C 22.8 °F /  -5.1 °C 30.3in /  1027.0hPa Calm   2.5mph /  4.0km/h 93% 0in /  0.0mm
00:19 24.8 °F /  -4.0 °C 23.4 °F /  -4.8 °C 30.3in /  1027.0hPa Calm     94% 0in /  0.0mm
00:24 25.2 °F /  -3.8 °C 23.5 °F /  -4.7 °C 30.3in /  1027.0hPa Calm     94% 0in /  0.0mm
00:29 25.5 °F /  -3.6 °C 24.3 °F /  -4.3 °C 30.3in /  1027.0hPa Calm     95% 0in /  0.0mm
00:34 25.9 °F /  -3.4 °C 24.6 °F /  -4.1 °C 30.3in /  1027.0hPa Calm     95% 0in /  0.0mm
00:39 26.2 °F /  -3.2 °C 25.2 °F /  -3.8 °C 30.3in /  1027.0hPa Calm     96% 0in /  0.0mm
00:44 26.4 °F /  -3.1 °C 25.3 °F /  -3.7 °C 30.3in /  1027.0hPa Calm     96% 0in /  0.0mm
00:49 26.8 °F /  -2.9 °C 26.1 °F /  -3.3 °C 30.3in /  1027.0hPa Calm     97% 0in /  0.0mm
00:54 27.1 °F /  -2.7 °C 26.1 °F /  -3.3 °C 30.3in /  1026.0hPa Calm     96% 0in /  0.0mm
00:59 27.3 °F /  -2.6 °C 26.8 °F /  -2.9 °C 30.3in /  1026.0hPa Calm     97% 0in /  0.0mm
01:04 27.9 °F /  -2.3 °C 27 °F /  -2.8 °C 30.3in /  1026.0hPa Calm     97% 0in /  0.0mm
01:09 27.9 °F /  -2.3 °C 27.1 °F /  -2.7 °C 30.3in /  1027.0hPa Calm     97% 0in /  0.0mm
01:14 28 °F /  -2.2 °C 27.3 °F /  -2.6 °C 30.3in /  1027.0hPa Calm     97% 0in /  0.0mm
01:19 28.2 °F /  -2.1 °C 27.7 °F /  -2.4 °C 30.3in /  1027.0hPa Calm     97% 0in /  0.0mm
01:24 28.6 °F /  -1.9 °C 27.7 °F /  -2.4 °C 30.3in /  1027.0hPa Calm     97% 0in /  0.0mm
01:29 28.6 °F /  -1.9 °C 27.9 °F /  -2.3 °C 30.3in /  1027.0hPa Calm     97% 0in /  0.0mm
01:34 28.8 °F /  -1.8 °C 28 °F /  -2.2 °C 30.3in /  1027.0hPa Calm     97% 0in /  0.0mm
01:39 28.9 °F /  -1.7 °C 28.2 °F /  -2.1 °C 30.3in /  1027.0hPa Calm     97% 0in /  0.0mm
01:44 28.9 °F /  -1.7 °C 28.2 °F /  -2.1 °C 30.3in /  1027.0hPa Calm     97% 0in /  0.0mm
01:49 29.1 °F /  -1.6 °C 28.4 °F /  -2.0 °C 30.3in /  1027.0hPa Calm     97% 0in /  0.0mm
01:54 29.5 °F /  -1.4 °C 28.6 °F /  -1.9 °C 30.3in /  1027.0hPa Calm   1.6mph /  2.6km/h 97% 0in /  0.0mm
01:59 29.5 °F /  -1.4 °C 28.8 °F /  -1.8 °C 30.3in /  1027.0hPa Calm   1.6mph /  2.6km/h 97% 0in /  0.0mm
02:04 29.5 °F /  -1.4 °C 28.8 °F /  -1.8 °C 30.3in /  1027.0hPa Calm   1.3mph /  2.1km/h 97% 0in /  0.0mm
02:09 29.7 °F /  -1.3 °C 28.9 °F /  -1.7 °C 30.3in /  1027.0hPa Calm   1.3mph /  2.1km/h 97% 0in /  0.0mm
02:14 29.8 °F /  -1.2 °C 29.1 °F /  -1.6 °C 30.3in /  1027.0hPa Calm   1.3mph /  2.1km/h 97% 0in /  0.0mm
02:20 30 °F /  -1.1 °C 29.3 °F /  -1.5 °C 30.3in /  1027.0hPa Calm     97% 0in /  0.0mm
02:28 30.2 °F /  -1.0 °C 29.5 °F /  -1.4 °C 30.3in /  1027.0hPa Calm     97% 0in /  0.0mm
02:33 30.2 °F /  -1.0 °C 29.5 °F /  -1.4 °C 30.3in /  1027.0hPa Calm     97% 0in /  0.0mm
02:38 30.4 °F /  -0.9 °C 29.7 °F /  -1.3 °C 30.3in /  1027.0hPa Calm     97% 0in /  0.0mm
02:43 30.6 °F /  -0.8 °C 29.8 °F /  -1.2 °C 30.3in /  1027.0hPa Calm     97% 0in /  0.0mm
02:54 30.7 °F /  -0.7 °C 30 °F /  -1.1 °C 30.3in /  1026.0hPa Calm     97% 0in /  0.0mm
02:59 30.7 °F /  -0.7 °C 30 °F /  -1.1 °C 30.3in /  1026.0hPa Calm     97% 0in /  0.0mm
03:06 32 °F /  0.0 °C 30.2 °F /  -1.0 °C 0in /  0.0hPa Calm     0% 0in /  0.0mm
03:11 30.9 °F /  -0.6 °C 30.2 °F /  -1.0 °C 30.3in /  1026.0hPa Calm     97% 0in /  0.0mm
03:16 31.1 °F /  -0.5 °C 30.4 °F /  -0.9 °C 30.3in /  1026.0hPa Calm     97% 0in /  0.0mm
03:21 31.1 °F /  -0.5 °C 30.4 °F /  -0.9 °C 30.3in /  1026.0hPa Calm     97% 0in /  0.0mm
03:26 31.1 °F /  -0.5 °C 30.4 °F /  -0.9 °C 30.3in /  1026.0hPa Calm     97% 0in /  0.0mm
03:31 31.3 °F /  -0.4 °C 30.6 °F /  -0.8 °C 30.3in /  1026.0hPa Calm     97% 0in /  0.0mm
03:36 31.3 °F /  -0.4 °C 30.6 °F /  -0.8 °C 30.3in /  1026.0hPa Calm     97% 0in /  0.0mm
03:41 31.5 °F /  -0.3 °C 30.7 °F /  -0.7 °C 30.3in /  1026.0hPa SE 0.9mph /  1.4km/h 0.9mph /  1.4km/h 97% 0in /  0.0mm
03:46 31.5 °F /  -0.3 °C 30.7 °F /  -0.7 °C 30.3in /  1026.0hPa Calm   1.1mph /  1.8km/h 97% 0in /  0.0mm
03:51 31.6 °F /  -0.2 °C 31.1 °F /  -0.5 °C 30.3in /  1026.0hPa Calm   1.1mph /  1.8km/h 98% 0in /  0.0mm
03:56 31.6 °F /  -0.2 °C 31.1 °F /  -0.5 °C 30.3in /  1026.0hPa Calm     98% 0in /  0.0mm
04:01 31.6 °F /  -0.2 °C 31.1 °F /  -0.5 °C 30.3in /  1026.0hPa Calm     98% 0in /  0.0mm
04:04 31.6 °F /  -0.2 °C 31.1 °F /  -0.5 °C 30.3in /  1026.0hPa Calm     98% 0in /  0.0mm
04:09 31.6 °F /  -0.2 °C 31.1 °F /  -0.5 °C 30.3in /  1026.0hPa Calm   0.9mph /  1.4km/h 98% 0in /  0.0mm
04:14 31.6 °F /  -0.2 °C 31.1 °F /  -0.5 °C 30.3in /  1026.0hPa Calm   0.9mph /  1.4km/h 98% 0in /  0.0mm
04:20 31.8 °F /  -0.1 °C 31.3 °F /  -0.4 °C 30.3in /  1026.0hPa WNW 3.4mph /  5.5km/h 3.4mph /  5.5km/h 98% 0in /  0.0mm
04:25 32 °F /  0.0 °C 31.5 °F /  -0.3 °C 30.3in /  1026.0hPa Calm   3.4mph /  5.5km/h 98% 0in /  0.0mm
04:30 32 °F /  0.0 °C 31.5 °F /  -0.3 °C 30.3in /  1026.0hPa Calm   3.4mph /  5.5km/h 98% 0in /  0.0mm
04:35 32 °F /  0.0 °C 31.5 °F /  -0.3 °C 30.3in /  1026.0hPa Calm   1.6mph /  2.6km/h 98% 0in /  0.0mm
04:40 32.2 °F /  0.1 °C 31.6 °F /  -0.2 °C 30.3in /  1026.0hPa Calm   1.6mph /  2.6km/h 98% 0in /  0.0mm
04:45 32.2 °F /  0.1 °C 31.6 °F /  -0.2 °C 30.3in /  1026.0hPa WNW 0.9mph /  1.4km/h 1.6mph /  2.6km/h 98% 0in /  0.0mm
04:50 32.2 °F /  0.1 °C 31.6 °F /  -0.2 °C 30.3in /  1026.0hPa Calm   1.6mph /  2.6km/h 98% 0in /  0.0mm
04:55 32.2 °F /  0.1 °C 31.6 °F /  -0.2 °C 30.3in /  1026.0hPa Calm   2mph /  3.2km/h 98% 0in /  0.0mm
05:00 32.2 °F /  0.1 °C 31.6 °F /  -0.2 °C 30.3in /  1026.0hPa Calm   2mph /  3.2km/h 98% 0in /  0.0mm
05:05 32.2 °F /  0.1 °C 31.6 °F /  -0.2 °C 30.3in /  1026.0hPa Calm     98% 0in /  0.0mm
05:10 32.2 °F /  0.1 °C 31.6 °F /  -0.2 °C 30.3in /  1026.0hPa Calm     98% 0in /  0.0mm
05:15 32.2 °F /  0.1 °C 31.6 °F /  -0.2 °C 30.3in /  1026.0hPa Calm     98% 0in /  0.0mm
05:20 32.2 °F /  0.1 °C 31.6 °F /  -0.2 °C 30.3in /  1026.0hPa Calm     98% 0in /  0.0mm
05:25 32.4 °F /  0.2 °C 31.8 °F /  -0.1 °C 30.3in /  1026.0hPa Calm     98% 0in /  0.0mm
05:30 32.4 °F /  0.2 °C 31.8 °F /  -0.1 °C 30.3in /  1026.0hPa Calm   2.2mph /  3.5km/h 98% 0in /  0.0mm
05:35 32.5 °F /  0.3 °C 32 °F /  0.0 °C 30.3in /  1026.0hPa Calm   2.2mph /  3.5km/h 98% 0in /  0.0mm
05:40 32.5 °F /  0.3 °C 32 °F /  0.0 °C 30.3in /  1026.0hPa Calm   1.3mph /  2.1km/h 98% 0in /  0.0mm
05:41 32.5 °F /  0.3 °C 32 °F /  0.0 °C 30.3in /  1026.0hPa Calm   1.3mph /  2.1km/h 98% 0in /  0.0mm
05:46 32.7 °F /  0.4 °C 32.2 °F /  0.1 °C 30.3in /  1026.0hPa Calm     98% 0in /  0.0mm
05:51 32.7 °F /  0.4 °C 32.2 °F /  0.1 °C 30.3in /  1026.0hPa Calm     98% 0in /  0.0mm
05:56 32.7 °F /  0.4 °C 32.2 °F /  0.1 °C 30.3in /  1026.0hPa Calm     98% 0in /  0.0mm
06:01 32.7 °F /  0.4 °C 32.2 °F /  0.1 °C 30.3in /  1026.0hPa SE 1.1mph /  1.8km/h 1.1mph /  1.8km/h 98% 0in /  0.0mm
06:06 32.7 °F /  0.4 °C 32.2 °F /  0.1 °C 30.3in /  1026.0hPa Calm   2mph /  3.2km/h 98% 0in /  0.0mm
06:11 32.7 °F /  0.4 °C 32.2 °F /  0.1 °C 30.3in /  1026.0hPa Calm   2mph /  3.2km/h 98% 0in /  0.0mm
06:12 32.7 °F /  0.4 °C 32.2 °F /  0.1 °C 30.3in /  1026.0hPa Calm   1.3mph /  2.1km/h 98% 0in /  0.0mm
06:17 32.7 °F /  0.4 °C 32.2 °F /  0.1 °C 30.3in /  1026.0hPa Calm     98% 0in /  0.0mm
06:22 32.7 °F /  0.4 °C 32.2 °F /  0.1 °C 30.3in /  1026.0hPa Calm     98% 0in /  0.0mm
06:27 32.7 °F /  0.4 °C 32.2 °F /  0.1 °C 30.3in /  1026.0hPa Calm     98% 0in /  0.0mm
06:32 32.9 °F /  0.5 °C 32.4 °F /  0.2 °C 30.3in /  1026.0hPa Calm     98% 0in /  0.0mm
06:37 33.1 °F /  0.6 °C 32.5 °F /  0.3 °C 30.3in /  1026.0hPa Calm   1.3mph /  2.1km/h 98% 0in /  0.0mm
06:42 33.1 °F /  0.6 °C 32.5 °F /  0.3 °C 30.3in /  1026.0hPa Calm   1.3mph /  2.1km/h 98% 0in /  0.0mm
06:47 33.1 °F /  0.6 °C 32.5 °F /  0.3 °C 30.3in /  1026.0hPa Calm     98% 0in /  0.0mm
06:52 33.1 °F /  0.6 °C 32.5 °F /  0.3 °C 30.3in /  1026.0hPa Calm     98% 0in /  0.0mm
06:57 33.1 °F /  0.6 °C 32.5 °F /  0.3 °C 30.3in /  1026.0hPa Calm   1.6mph /  2.6km/h 98% 0in /  0.0mm
07:02 33.1 °F /  0.6 °C 32.5 °F /  0.3 °C 30.3in /  1026.0hPa WNW 1.6mph /  2.6km/h 2.5mph /  4.0km/h 98% 0in /  0.0mm
07:07 33.1 °F /  0.6 °C 32.5 °F /  0.3 °C 30.3in /  1027.0hPa Calm   2.5mph /  4.0km/h 98% 0in /  0.0mm
07:08 33.1 °F /  0.6 °C 32.5 °F /  0.3 °C 30.3in /  1027.0hPa Calm   2.5mph /  4.0km/h 98% 0in /  0.0mm
07:13 33.1 °F /  0.6 °C 32.5 °F /  0.3 °C 30.3in /  1027.0hPa Calm   2mph /  3.2km/h 98% 0in /  0.0mm
07:18 33.1 °F /  0.6 °C 32.5 °F /  0.3 °C 30.3in /  1027.0hPa Calm     98% 0in /  0.0mm
07:23 33.1 °F /  0.6 °C 32.5 °F /  0.3 °C 30.3in /  1027.0hPa NW 2mph /  3.2km/h 2.5mph /  4.0km/h 98% 0in /  0.0mm
07:28 33.3 °F /  0.7 °C 32.7 °F /  0.4 °C 30.3in /  1027.0hPa WNW 1.6mph /  2.6km/h 2.5mph /  4.0km/h 98% 0in /  0.0mm
07:33 33.3 °F /  0.7 °C 32.7 °F /  0.4 °C 30.3in /  1027.0hPa Calm   2.2mph /  3.5km/h 98% 0in /  0.0mm
07:38 33.3 °F /  0.7 °C 32.7 °F /  0.4 °C 30.3in /  1027.0hPa Calm   1.6mph /  2.6km/h 98% 0in /  0.0mm
07:43 33.3 °F /  0.7 °C 32.7 °F /  0.4 °C 30.3in /  1027.0hPa Calm   2mph /  3.2km/h 98% 0in /  0.0mm
07:48 33.3 °F /  0.7 °C 32.7 °F /  0.4 °C 30.3in /  1027.0hPa NE 2mph /  3.2km/h 2.5mph /  4.0km/h 98% 0in /  0.0mm
07:53 33.3 °F /  0.7 °C 32.7 °F /  0.4 °C 30.3in /  1027.0hPa Calm   2.9mph /  4.7km/h 98% 0in /  0.0mm
07:58 33.3 °F /  0.7 °C 32.7 °F /  0.4 °C 30.3in /  1027.0hPa Calm   2.9mph /  4.7km/h 98% 0in /  0.0mm
08:03 33.3 °F /  0.7 °C 32.7 °F /  0.4 °C 30.3in /  1027.0hPa Calm     98% 0in /  0.0mm
08:08 33.3 °F /  0.7 °C 32.7 °F /  0.4 °C 30.3in /  1027.0hPa WNW 1.3mph /  2.1km/h 2mph /  3.2km/h 98% 0in /  0.0mm
08:13 33.3 °F /  0.7 °C 32.7 °F /  0.4 °C 30.3in /  1027.0hPa Calm   2mph /  3.2km/h 98% 0in /  0.0mm
08:18 33.3 °F /  0.7 °C 32.7 °F /  0.4 °C 30.3in /  1027.0hPa Calm   0.9mph /  1.4km/h 98% 0in /  0.0mm
08:23 33.3 °F /  0.7 °C 32.7 °F /  0.4 °C 30.3in /  1026.0hPa East 1.6mph /  2.6km/h 2.2mph /  3.5km/h 98% 0in /  0.0mm
08:28 33.4 °F /  0.8 °C 32.9 °F /  0.5 °C 30.3in /  1026.0hPa ESE 2mph /  3.2km/h 2.7mph /  4.3km/h 98% 0in /  0.0mm
08:33 33.4 °F /  0.8 °C 32.9 °F /  0.5 °C 30.3in /  1026.0hPa Calm   2.7mph /  4.3km/h 98% 0in /  0.0mm
08:38 33.6 °F /  0.9 °C 33.1 °F /  0.6 °C 30.3in /  1026.0hPa Calm   2mph /  3.2km/h 98% 0in /  0.0mm
08:43 33.6 °F /  0.9 °C 33.1 °F /  0.6 °C 30.3in /  1026.0hPa Calm   1.6mph /  2.6km/h 98% 0in /  0.0mm
08:48 33.6 °F /  0.9 °C 33.1 °F /  0.6 °C 30.3in /  1026.0hPa South 3.4mph /  5.5km/h 3.4mph /  5.5km/h 98% 0in /  0.0mm
08:53 33.8 °F /  1.0 °C 33.3 °F /  0.7 °C 30.3in /  1027.0hPa South 1.1mph /  1.8km/h 3.4mph /  5.5km/h 98% 0in /  0.0mm
08:58 33.8 °F /  1.0 °C 33.3 °F /  0.7 °C 30.3in /  1027.0hPa SW 2.5mph /  4.0km/h 3.4mph /  5.5km/h 98% 0in /  0.0mm
09:03 33.8 °F /  1.0 °C 33.3 °F /  0.7 °C 30.3in /  1027.0hPa Calm   3.1mph /  5.0km/h 98% 0in /  0.0mm
09:08 33.8 °F /  1.0 °C 33.3 °F /  0.7 °C 30.3in /  1027.0hPa South 1.6mph /  2.6km/h 2.7mph /  4.3km/h 98% 0in /  0.0mm
09:13 33.8 °F /  1.0 °C 33.3 °F /  0.7 °C 30.3in /  1027.0hPa South 2.9mph /  4.7km/h 3.4mph /  5.5km/h 98% 0in /  0.0mm
09:18 34 °F /  1.1 °C 33.4 °F /  0.8 °C 30.3in /  1027.0hPa Calm   3.4mph /  5.5km/h 98% 0in /  0.0mm
09:23 34 °F /  1.1 °C 33.4 °F /  0.8 °C 30.3in /  1027.0hPa SSE 2.7mph /  4.3km/h 4mph /  6.4km/h 98% 0in /  0.0mm
09:28 34 °F /  1.1 °C 33.4 °F /  0.8 °C 30.3in /  1027.0hPa SSW 3.6mph /  5.8km/h 4mph /  6.4km/h 98% 0in /  0.0mm
09:33 34 °F /  1.1 °C 33.4 °F /  0.8 °C 30.3in /  1027.0hPa South 1.6mph /  2.6km/h 4mph /  6.4km/h 98% 0in /  0.0mm
09:38 34 °F /  1.1 °C 33.4 °F /  0.8 °C 30.3in /  1027.0hPa SSW 2.7mph /  4.3km/h 3.8mph /  6.1km/h 98% 0in /  0.0mm
09:43 34.2 °F /  1.2 °C 33.6 °F /  0.9 °C 30.3in /  1027.0hPa SSW 2.5mph /  4.0km/h 3.4mph /  5.5km/h 98% 0in /  0.0mm
09:48 34.2 °F /  1.2 °C 33.6 °F /  0.9 °C 30.3in /  1027.0hPa Calm   3.4mph /  5.5km/h 98% 0in /  0.0mm
09:53 34.3 °F /  1.3 °C 33.8 °F /  1.0 °C 30.3in /  1027.0hPa SSW 2.2mph /  3.5km/h 2.9mph /  4.7km/h 98% 0in /  0.0mm
09:58 34.3 °F /  1.3 °C 33.8 °F /  1.0 °C 30.3in /  1027.0hPa SSW 2.2mph /  3.5km/h 2.9mph /  4.7km/h 98% 0in /  0.0mm
10:03 34.5 °F /  1.4 °C 34 °F /  1.1 °C 30.3in /  1027.0hPa South 2mph /  3.2km/h 2.9mph /  4.7km/h 98% 0in /  0.0mm
10:08 34.5 °F /  1.4 °C 34 °F /  1.1 °C 30.3in /  1027.0hPa West 2mph /  3.2km/h 2.9mph /  4.7km/h 98% 0in /  0.0mm
10:13 34.5 °F /  1.4 °C 34.2 °F /  1.2 °C 30.3in /  1027.0hPa Calm   2.5mph /  4.0km/h 98% 0in /  0.0mm
10:18 34.9 °F /  1.6 °C 34.3 °F /  1.3 °C 30.3in /  1027.0hPa Calm   2.5mph /  4.0km/h 98% 0in /  0.0mm
10:23 34.9 °F /  1.6 °C 34.3 °F /  1.3 °C 30.3in /  1027.0hPa Calm   2.2mph /  3.5km/h 98% 0in /  0.0mm
10:28 34.9 °F /  1.6 °C 34.3 °F /  1.3 °C 30.3in /  1027.0hPa NW 1.1mph /  1.8km/h 2.5mph /  4.0km/h 98% 0in /  0.0mm
10:33 35.1 °F /  1.7 °C 34.5 °F /  1.4 °C 30.3in /  1027.0hPa Calm   3.1mph /  5.0km/h 98% 0in /  0.0mm
10:38 35.1 °F /  1.7 °C 34.5 °F /  1.4 °C 30.3in /  1027.0hPa West 3.1mph /  5.0km/h 3.1mph /  5.0km/h 98% 0in /  0.0mm
10:43 35.2 °F /  1.8 °C 34.7 °F /  1.5 °C 30.3in /  1027.0hPa WNW 1.6mph /  2.6km/h 3.1mph /  5.0km/h 98% 0in /  0.0mm
10:48 35.2 °F /  1.8 °C 34.7 °F /  1.5 °C 30.3in /  1027.0hPa Calm   3.4mph /  5.5km/h 98% 0in /  0.0mm
10:53 35.2 °F /  1.8 °C 34.7 °F /  1.5 °C 30.3in /  1027.0hPa Calm   3.4mph /  5.5km/h 98% 0in /  0.0mm
10:58 35.2 °F /  1.8 °C 34.7 °F /  1.5 °C 30.3in /  1027.0hPa West 2.5mph /  4.0km/h 2.5mph /  4.0km/h 98% 0in /  0.0mm
11:03 35.4 °F /  1.9 °C 34.9 °F /  1.6 °C 30.3in /  1027.0hPa WSW 3.1mph /  5.0km/h 3.6mph /  5.8km/h 98% 0in /  0.0mm
11:08 35.4 °F /  1.9 °C 34.9 °F /  1.6 °C 30.4in /  1028.0hPa WSW 2.7mph /  4.3km/h 3.6mph /  5.8km/h 98% 0in /  0.0mm
11:13 35.4 °F /  1.9 °C 34.9 °F /  1.6 °C 30.4in /  1028.0hPa WSW 2.7mph /  4.3km/h 3.1mph /  5.0km/h 98% 0in /  0.0mm
11:18 35.4 °F /  1.9 °C 34.9 °F /  1.6 °C 30.4in /  1028.0hPa West 3.6mph /  5.8km/h 3.8mph /  6.1km/h 98% 0in /  0.0mm
11:23 35.4 °F /  1.9 °C 34.9 °F /  1.6 °C 30.4in /  1028.0hPa WSW 2.9mph /  4.7km/h 4.3mph /  6.9km/h 98% 0in /  0.0mm
11:28 35.4 °F /  1.9 °C 34.9 °F /  1.6 °C 30.4in /  1028.0hPa West 4mph /  6.4km/h 5.4mph /  8.7km/h 98% 0in /  0.0mm
11:33 35.4 °F /  1.9 °C 34.9 °F /  1.6 °C 30.4in /  1028.0hPa WSW 4.3mph /  6.9km/h 5.6mph /  9.0km/h 98% 0in /  0.0mm
11:38 35.4 °F /  1.9 °C 34.9 °F /  1.6 °C 30.3in /  1027.0hPa WNW 2.5mph /  4.0km/h 5.6mph /  9.0km/h 98% 0in /  0.0mm
11:43 35.4 °F /  1.9 °C 34.9 °F /  1.6 °C 30.3in /  1027.0hPa West 3.1mph /  5.0km/h 4.9mph /  7.9km/h 97% 0in /  0.0mm
11:48 35.4 °F /  1.9 °C 34.9 °F /  1.6 °C 30.3in /  1027.0hPa West 3.8mph /  6.1km/h 5.4mph /  8.7km/h 97% 0in /  0.0mm
11:53 35.4 °F /  1.9 °C 34.9 °F /  1.6 °C 30.3in /  1027.0hPa WSW 2.9mph /  4.7km/h 5.4mph /  8.7km/h 97% 0in /  0.0mm
11:58 35.4 °F /  1.9 °C 34.9 °F /  1.6 °C 30.3in /  1027.0hPa West 3.8mph /  6.1km/h 5.6mph /  9.0km/h 97% 0in /  0.0mm
12:03 35.4 °F /  1.9 °C 34.9 °F /  1.6 °C 30.3in /  1027.0hPa WSW 3.8mph /  6.1km/h 5.6mph /  9.0km/h 98% 0in /  0.0mm
12:08 35.4 °F /  1.9 °C 34.5 °F /  1.4 °C 30.3in /  1027.0hPa West 3.6mph /  5.8km/h 5.6mph /  9.0km/h 97% 0in /  0.0mm
12:13 35.4 °F /  1.9 °C 34.5 °F /  1.4 °C 30.3in /  1027.0hPa West 4.9mph /  7.9km/h 6.3mph /  10.1km/h 97% 0in /  0.0mm
12:18 35.4 °F /  1.9 °C 34.5 °F /  1.4 °C 30.3in /  1027.0hPa West 1.3mph /  2.1km/h 6.3mph /  10.1km/h 97% 0in /  0.0mm
12:23 35.4 °F /  1.9 °C 34.5 °F /  1.4 °C 30.3in /  1027.0hPa WNW 4.9mph /  7.9km/h 6mph /  9.7km/h 97% 0in /  0.0mm
12:28 35.2 °F /  1.8 °C 34.3 °F /  1.3 °C 30.3in /  1027.0hPa West 0.9mph /  1.4km/h 6mph /  9.7km/h 97% 0in /  0.0mm
12:33 35.4 °F /  1.9 °C 34.5 °F /  1.4 °C 30.3in /  1027.0hPa Calm   6mph /  9.7km/h 97% 0in /  0.0mm
12:38 35.4 °F /  1.9 °C 34.5 °F /  1.4 °C 30.3in /  1027.0hPa Calm   5.4mph /  8.7km/h 97% 0in /  0.0mm
12:43 35.4 °F /  1.9 °C 34.5 °F /  1.4 °C 30.3in /  1027.0hPa SW 3.4mph /  5.5km/h 5.4mph /  8.7km/h 97% 0in /  0.0mm
12:48 35.4 °F /  1.9 °C 34.5 °F /  1.4 °C 30.3in /  1027.0hPa West 3.4mph /  5.5km/h 5.4mph /  8.7km/h 97% 0in /  0.0mm
12:53 35.4 °F /  1.9 °C 34.5 °F /  1.4 °C 30.3in /  1026.0hPa West 5.4mph /  8.7km/h 6mph /  9.7km/h 97% 0in /  0.0mm
12:58 35.2 °F /  1.8 °C 34.3 °F /  1.3 °C 30.3in /  1026.0hPa West 3.1mph /  5.0km/h 6mph /  9.7km/h 97% 0in /  0.0mm
13:03 35.2 °F /  1.8 °C 34.3 °F /  1.3 °C 30.3in /  1026.0hPa West 1.3mph /  2.1km/h 6.3mph /  10.1km/h 97% 0in /  0.0mm
13:08 35.2 °F /  1.8 °C 34.3 °F /  1.3 °C 30.3in /  1027.0hPa WSW 4.3mph /  6.9km/h 6.3mph /  10.1km/h 97% 0in /  0.0mm
13:13 35.1 °F /  1.7 °C 34.2 °F /  1.2 °C 30.3in /  1027.0hPa WNW 5.4mph /  8.7km/h 5.6mph /  9.0km/h 97% 0in /  0.0mm
13:18 35.1 °F /  1.7 °C 34.2 °F /  1.2 °C 30.3in /  1027.0hPa West 6.3mph /  10.1km/h 6.3mph /  10.1km/h 97% 0in /  0.0mm
13:23 35.1 °F /  1.7 °C 34 °F /  1.1 °C 30.3in /  1027.0hPa West 0.9mph /  1.4km/h 6.3mph /  10.1km/h 96% 0in /  0.0mm
13:28 35.1 °F /  1.7 °C 34 °F /  1.1 °C 30.3in /  1027.0hPa West 3.8mph /  6.1km/h 6.3mph /  10.1km/h 96% 0in /  0.0mm
13:33 34.9 °F /  1.6 °C 33.8 °F /  1.0 °C 30.3in /  1027.0hPa West 4.7mph /  7.6km/h 6.5mph /  10.5km/h 96% 0in /  0.0mm
13:38 34.9 °F /  1.6 °C 33.8 °F /  1.0 °C 30.3in /  1027.0hPa WNW 3.8mph /  6.1km/h 7.2mph /  11.6km/h 96% 0in /  0.0mm
13:43 34.9 °F /  1.6 °C 33.8 °F /  1.0 °C 30.3in /  1027.0hPa West 3.6mph /  5.8km/h 7.2mph /  11.6km/h 96% 0in /  0.0mm
13:48 34.9 °F /  1.6 °C 33.8 °F /  1.0 °C 30.3in /  1027.0hPa WSW 3.8mph /  6.1km/h 5.8mph /  9.3km/h 96% 0in /  0.0mm
13:53 34.5 °F /  1.4 °C 33.6 °F /  0.9 °C 30.3in /  1027.0hPa SSW 1.1mph /  1.8km/h 4.5mph /  7.2km/h 96% 0in /  0.0mm
13:58 34.5 °F /  1.4 °C 33.6 °F /  0.9 °C 30.3in /  1027.0hPa Calm   4mph /  6.4km/h 96% 0in /  0.0mm
14:03 34.5 °F /  1.4 °C 33.6 °F /  0.9 °C 30.3in /  1027.0hPa Calm   5.4mph /  8.7km/h 96% 0in /  0.0mm
14:08 34.5 °F /  1.4 °C 33.6 °F /  0.9 °C 30.3in /  1026.0hPa Calm   5.4mph /  8.7km/h 96% 0in /  0.0mm
14:13 34.5 °F /  1.4 °C 33.6 °F /  0.9 °C 30.3in /  1026.0hPa Calm   4mph /  6.4km/h 96% 0in /  0.0mm
14:18 34.5 °F /  1.4 °C 33.6 °F /  0.9 °C 30.3in /  1026.0hPa West 1.6mph /  2.6km/h 4.5mph /  7.2km/h 96% 0in /  0.0mm
14:23 34.5 °F /  1.4 °C 33.4 °F /  0.8 °C 30.3in /  1027.0hPa SW 3.4mph /  5.5km/h 4.5mph /  7.2km/h 96% 0in /  0.0mm
14:28 34.5 °F /  1.4 °C 33.4 °F /  0.8 °C 30.3in /  1027.0hPa Calm   4.3mph /  6.9km/h 96% 0in /  0.0mm
14:33 34.5 °F /  1.4 °C 33.4 °F /  0.8 °C 30.3in /  1027.0hPa Calm   3.8mph /  6.1km/h 96% 0in /  0.0mm
14:38 34.5 °F /  1.4 °C 33.4 °F /  0.8 °C 30.3in /  1027.0hPa SW 4mph /  6.4km/h 5.4mph /  8.7km/h 96% 0in /  0.0mm
14:43 34.5 °F /  1.4 °C 33.4 °F /  0.8 °C 30.3in /  1027.0hPa WSW 4mph /  6.4km/h 5.4mph /  8.7km/h 96% 0in /  0.0mm
14:48 34.3 °F /  1.3 °C 33.3 °F /  0.7 °C 30.3in /  1027.0hPa Calm   4.9mph /  7.9km/h 96% 0in /  0.0mm
14:53 34.3 °F /  1.3 °C 33.3 °F /  0.7 °C 30.3in /  1027.0hPa WSW 4mph /  6.4km/h 5.4mph /  8.7km/h 96% 0in /  0.0mm
14:58 34.3 °F /  1.3 °C 33.3 °F /  0.7 °C 30.3in /  1027.0hPa Calm   5.4mph /  8.7km/h 96% 0in /  0.0mm
15:03 34.3 °F /  1.3 °C 33.3 °F /  0.7 °C 30.3in /  1027.0hPa West 4.9mph /  7.9km/h 5.6mph /  9.0km/h 96% 0in /  0.0mm
15:08 34.2 °F /  1.2 °C 33.1 °F /  0.6 °C 30.3in /  1027.0hPa West 5.6mph /  9.0km/h 6.5mph /  10.5km/h 96% 0in /  0.0mm
15:13 34 °F /  1.1 °C 32.7 °F /  0.4 °C 30.3in /  1027.0hPa WSW 4mph /  6.4km/h 6.5mph /  10.5km/h 95% 0in /  0.0mm
15:18 33.8 °F /  1.0 °C 32.5 °F /  0.3 °C 30.3in /  1027.0hPa SW 2.5mph /  4.0km/h 7.4mph /  11.9km/h 95% 0in /  0.0mm
15:23 33.8 °F /  1.0 °C 32.7 °F /  0.4 °C 30.3in /  1027.0hPa SW 2.2mph /  3.5km/h 7.4mph /  11.9km/h 96% 0in /  0.0mm
15:28 33.8 °F /  1.0 °C 32.7 °F /  0.4 °C 30.3in /  1027.0hPa Calm   4.7mph /  7.6km/h 96% 0in /  0.0mm
15:33 33.8 °F /  1.0 °C 32.7 °F /  0.4 °C 30.3in /  1027.0hPa WSW 5.4mph /  8.7km/h 5.4mph /  8.7km/h 96% 0in /  0.0mm
15:38 33.8 °F /  1.0 °C 32.7 °F /  0.4 °C 30.3in /  1027.0hPa Calm   5.4mph /  8.7km/h 96% 0in /  0.0mm
15:43 33.6 °F /  0.9 °C 32.5 °F /  0.3 °C 30.3in /  1027.0hPa Calm   5.4mph /  8.7km/h 96% 0in /  0.0mm
15:48 33.6 °F /  0.9 °C 32.5 °F /  0.3 °C 30.3in /  1027.0hPa SSW 2.9mph /  4.7km/h 4.3mph /  6.9km/h 96% 0in /  0.0mm
15:53 33.6 °F /  0.9 °C 32.5 °F /  0.3 °C 30.3in /  1027.0hPa SW 4mph /  6.4km/h 4.5mph /  7.2km/h 96% 0in /  0.0mm
15:58 33.4 °F /  0.8 °C 32.4 °F /  0.2 °C 30.3in /  1027.0hPa SSW 1.6mph /  2.6km/h 4.5mph /  7.2km/h 96% 0in /  0.0mm
16:03 33.4 °F /  0.8 °C 32.4 °F /  0.2 °C 30.3in /  1027.0hPa Calm   4.5mph /  7.2km/h 96% 0in /  0.0mm
16:08 33.4 °F /  0.8 °C 32.4 °F /  0.2 °C 30.3in /  1027.0hPa Calm   4.5mph /  7.2km/h 96% 0in /  0.0mm
16:13 33.3 °F /  0.7 °C 32.2 °F /  0.1 °C 30.3in /  1027.0hPa West 4mph /  6.4km/h 5.8mph /  9.3km/h 96% 0in /  0.0mm
16:15 33.3 °F /  0.7 °C 32.2 °F /  0.1 °C 30.3in /  1027.0hPa West 3.1mph /  5.0km/h 5.8mph /  9.3km/h 96% 0in /  0.0mm
16:20 33.3 °F /  0.7 °C 32.2 °F /  0.1 °C 30.3in /  1027.0hPa West 4.9mph /  7.9km/h 6.5mph /  10.5km/h 96% 0in /  0.0mm
16:25 33.3 °F /  0.7 °C 32.2 °F /  0.1 °C 30.3in /  1027.0hPa WSW 1.3mph /  2.1km/h 6.5mph /  10.5km/h 96% 0in /  0.0mm
16:30 33.3 °F /  0.7 °C 32.5 °F /  0.3 °C 30.3in /  1027.0hPa WSW 3.1mph /  5.0km/h 4.9mph /  7.9km/h 97% 0in /  0.0mm
16:35 33.3 °F /  0.7 °C 32.5 °F /  0.3 °C 30.3in /  1027.0hPa Calm   4.3mph /  6.9km/h 97% 0in /  0.0mm
16:40 33.3 °F /  0.7 °C 32.5 °F /  0.3 °C 30.3in /  1027.0hPa West 2.7mph /  4.3km/h 3.8mph /  6.1km/h 97% 0in /  0.0mm
16:45 33.1 °F /  0.6 °C 32.4 °F /  0.2 °C 30.3in /  1027.0hPa West 3.8mph /  6.1km/h 5.6mph /  9.0km/h 97% 0in /  0.0mm
16:50 33.1 °F /  0.6 °C 32.4 °F /  0.2 °C 30.3in /  1027.0hPa West 4.9mph /  7.9km/h 7.4mph /  11.9km/h 97% 0in /  0.0mm
16:55 33.1 °F /  0.6 °C 32.4 °F /  0.2 °C 30.4in /  1028.0hPa WSW 3.6mph /  5.8km/h 7.4mph /  11.9km/h 97% 0in /  0.0mm
17:00 32.9 °F /  0.5 °C 32.2 °F /  0.1 °C 30.4in /  1028.0hPa Calm   6mph /  9.7km/h 97% 0in /  0.0mm
17:05 32.7 °F /  0.4 °C 31.8 °F /  -0.1 °C 30.4in /  1028.0hPa Calm   4mph /  6.4km/h 97% 0in /  0.0mm
17:10 32.7 °F /  0.4 °C 31.8 °F /  -0.1 °C 30.3in /  1027.0hPa Calm   4mph /  6.4km/h 97% 0in /  0.0mm
17:15 32.5 °F /  0.3 °C 31.8 °F /  -0.1 °C 30.3in /  1027.0hPa SSW 3.1mph /  5.0km/h 4.7mph /  7.6km/h 97% 0in /  0.0mm
17:20 32.5 °F /  0.3 °C 31.8 °F /  -0.1 °C 30.3in /  1027.0hPa Calm   4.7mph /  7.6km/h 97% 0in /  0.0mm
17:25 32.5 °F /  0.3 °C 31.8 °F /  -0.1 °C 30.3in /  1027.0hPa Calm   3.8mph /  6.1km/h 97% 0in /  0.0mm
17:30 32.4 °F /  0.2 °C 31.6 °F /  -0.2 °C 30.3in /  1027.0hPa South 2mph /  3.2km/h 3.4mph /  5.5km/h 97% 0in /  0.0mm
17:35 32.4 °F /  0.2 °C 31.6 °F /  -0.2 °C 30.3in /  1027.0hPa Calm   3.4mph /  5.5km/h 97% 0in /  0.0mm
17:40 32.4 °F /  0.2 °C 31.6 °F /  -0.2 °C 30.3in /  1027.0hPa WSW 2.9mph /  4.7km/h 3.4mph /  5.5km/h 97% 0in /  0.0mm
17:45 32.4 °F /  0.2 °C 31.6 °F /  -0.2 °C 30.3in /  1027.0hPa Calm   4mph /  6.4km/h 97% 0in /  0.0mm
17:50 32.2 °F /  0.1 °C 31.5 °F /  -0.3 °C 30.3in /  1027.0hPa SSW 0.9mph /  1.4km/h 4mph /  6.4km/h 97% 0in /  0.0mm
17:55 32.2 °F /  0.1 °C 31.5 °F /  -0.3 °C 30.3in /  1027.0hPa Calm   3.8mph /  6.1km/h 97% 0in /  0.0mm
18:00 32.2 °F /  0.1 °C 31.5 °F /  -0.3 °C 30.3in /  1027.0hPa Calm   3.8mph /  6.1km/h 97% 0in /  0.0mm
18:05 32.2 °F /  0.1 °C 31.5 °F /  -0.3 °C 30.3in /  1027.0hPa WSW 4mph /  6.4km/h 4.3mph /  6.9km/h 97% 0in /  0.0mm
18:10 32.2 °F /  0.1 °C 31.5 °F /  -0.3 °C 30.3in /  1027.0hPa Calm   4.3mph /  6.9km/h 97% 0in /  0.0mm
18:15 32.2 °F /  0.1 °C 31.5 °F /  -0.3 °C 30.3in /  1027.0hPa WNW 1.1mph /  1.8km/h 4.7mph /  7.6km/h 97% 0in /  0.0mm
18:20 32.2 °F /  0.1 °C 31.5 °F /  -0.3 °C 30.3in /  1027.0hPa West 2.7mph /  4.3km/h 4.7mph /  7.6km/h 97% 0in /  0.0mm
18:25 32 °F /  0.0 °C 31.3 °F /  -0.4 °C 30.3in /  1027.0hPa West 4mph /  6.4km/h 4.3mph /  6.9km/h 97% 0in /  0.0mm
18:30 32 °F /  0.0 °C 31.3 °F /  -0.4 °C 30.3in /  1027.0hPa WNW 2mph /  3.2km/h 6mph /  9.7km/h 97% 0in /  0.0mm
18:35 31.8 °F /  -0.1 °C 31.1 °F /  -0.5 °C 30.3in /  1027.0hPa West 2.7mph /  4.3km/h 6mph /  9.7km/h 97% 0in /  0.0mm
18:40 31.8 °F /  -0.1 °C 31.1 °F /  -0.5 °C 30.3in /  1027.0hPa WNW 2.9mph /  4.7km/h 4.9mph /  7.9km/h 97% 0in /  0.0mm
18:45 31.8 °F /  -0.1 °C 31.1 °F /  -0.5 °C 30.3in /  1027.0hPa West 2.5mph /  4.0km/h 5.8mph /  9.3km/h 97% 0in /  0.0mm
18:50 31.8 °F /  -0.1 °C 31.1 °F /  -0.5 °C 30.3in /  1027.0hPa West 3.4mph /  5.5km/h 5.8mph /  9.3km/h 97% 0in /  0.0mm
18:55 31.8 °F /  -0.1 °C 31.3 °F /  -0.4 °C 30.3in /  1027.0hPa Calm   4.3mph /  6.9km/h 98% 0in /  0.0mm
19:00 31.8 °F /  -0.1 °C 31.3 °F /  -0.4 °C 30.3in /  1027.0hPa WSW 3.8mph /  6.1km/h 4.3mph /  6.9km/h 98% 0in /  0.0mm
19:05 31.8 °F /  -0.1 °C 31.3 °F /  -0.4 °C 30.3in /  1027.0hPa West 4mph /  6.4km/h 5.4mph /  8.7km/h 98% 0in /  0.0mm
19:10 31.6 °F /  -0.2 °C 31.1 °F /  -0.5 °C 30.3in /  1027.0hPa West 5.4mph /  8.7km/h 5.8mph /  9.3km/h 98% 0in /  0.0mm
19:15 31.5 °F /  -0.3 °C 30.9 °F /  -0.6 °C 30.3in /  1027.0hPa WSW 3.8mph /  6.1km/h 6.3mph /  10.1km/h 98% 0in /  0.0mm
19:20 31.5 °F /  -0.3 °C 30.9 °F /  -0.6 °C 30.3in /  1027.0hPa SW 3.4mph /  5.5km/h 6.3mph /  10.1km/h 98% 0in /  0.0mm
19:25 31.5 °F /  -0.3 °C 30.9 °F /  -0.6 °C 30.3in /  1027.0hPa WSW 3.1mph /  5.0km/h 6mph /  9.7km/h 98% 0in /  0.0mm
19:30 31.5 °F /  -0.3 °C 30.9 °F /  -0.6 °C 30.3in /  1027.0hPa West 3.4mph /  5.5km/h 4.9mph /  7.9km/h 98% 0in /  0.0mm
19:35 31.5 °F /  -0.3 °C 30.9 °F /  -0.6 °C 30.3in /  1027.0hPa SW 2.7mph /  4.3km/h 4.9mph /  7.9km/h 98% 0in /  0.0mm
19:40 31.5 °F /  -0.3 °C 30.9 °F /  -0.6 °C 30.3in /  1027.0hPa WSW 2.7mph /  4.3km/h 4.3mph /  6.9km/h 98% 0in /  0.0mm
19:45 31.5 °F /  -0.3 °C 30.9 °F /  -0.6 °C 30.3in /  1027.0hPa SW 0.9mph /  1.4km/h 4.3mph /  6.9km/h 98% 0in /  0.0mm
19:50 31.5 °F /  -0.3 °C 30.9 °F /  -0.6 °C 30.3in /  1027.0hPa Calm   4mph /  6.4km/h 98% 0in /  0.0mm
19:55 31.5 °F /  -0.3 °C 30.9 °F /  -0.6 °C 30.3in /  1027.0hPa SW 2.5mph /  4.0km/h 4mph /  6.4km/h 98% 0in /  0.0mm
19:56 31.5 °F /  -0.3 °C 30.9 °F /  -0.6 °C 30.3in /  1027.0hPa SW 2.9mph /  4.7km/h 4mph /  6.4km/h 98% 0in /  0.0mm
20:01 31.5 °F /  -0.3 °C 30.9 °F /  -0.6 °C 30.3in /  1027.0hPa South 1.3mph /  2.1km/h 3.8mph /  6.1km/h 98% 0in /  0.0mm
20:06 31.3 °F /  -0.4 °C 30.7 °F /  -0.7 °C 30.3in /  1027.0hPa Calm   3.6mph /  5.8km/h 98% 0in /  0.0mm
20:11 31.3 °F /  -0.4 °C 30.7 °F /  -0.7 °C 30.3in /  1027.0hPa Calm   2.7mph /  4.3km/h 98% 0in /  0.0mm
20:16 31.3 °F /  -0.4 °C 30.7 °F /  -0.7 °C 30.3in /  1027.0hPa Calm     98% 0in /  0.0mm
20:21 31.3 °F /  -0.4 °C 30.7 °F /  -0.7 °C 30.3in /  1027.0hPa Calm     98% 0in /  0.0mm
20:26 31.3 °F /  -0.4 °C 30.7 °F /  -0.7 °C 30.3in /  1027.0hPa Calm   1.3mph /  2.1km/h 98% 0in /  0.0mm
20:31 31.3 °F /  -0.4 °C 30.7 °F /  -0.7 °C 30.3in /  1027.0hPa Calm   3.8mph /  6.1km/h 98% 0in /  0.0mm
20:36 31.3 °F /  -0.4 °C 30.7 °F /  -0.7 °C 30.3in /  1027.0hPa Calm   3.8mph /  6.1km/h 98% 0in /  0.0mm
20:41 31.3 °F /  -0.4 °C 30.7 °F /  -0.7 °C 30.3in /  1026.0hPa Calm   3.8mph /  6.1km/h 98% 0in /  0.0mm
20:46 31.3 °F /  -0.4 °C 30.7 °F /  -0.7 °C 30.3in /  1026.0hPa WSW 3.4mph /  5.5km/h 4mph /  6.4km/h 98% 0in /  0.0mm
20:51 31.3 °F /  -0.4 °C 30.7 °F /  -0.7 °C 30.3in /  1026.0hPa WSW 4mph /  6.4km/h 4.9mph /  7.9km/h 98% 0in /  0.0mm
20:56 31.3 °F /  -0.4 °C 30.7 °F /  -0.7 °C 30.3in /  1027.0hPa WSW 2.9mph /  4.7km/h 4.9mph /  7.9km/h 98% 0in /  0.0mm
21:01 31.3 °F /  -0.4 °C 30.7 °F /  -0.7 °C 30.3in /  1027.0hPa SSW 2.5mph /  4.0km/h 4mph /  6.4km/h 98% 0in /  0.0mm
21:06 31.3 °F /  -0.4 °C 30.7 °F /  -0.7 °C 30.3in /  1027.0hPa WSW 2mph /  3.2km/h 3.8mph /  6.1km/h 98% 0in /  0.0mm
21:11 31.3 °F /  -0.4 °C 30.7 °F /  -0.7 °C 30.3in /  1027.0hPa SW 2.9mph /  4.7km/h 3.8mph /  6.1km/h 98% 0in /  0.0mm
21:16 31.3 °F /  -0.4 °C 30.7 °F /  -0.7 °C 30.3in /  1027.0hPa WSW 2.7mph /  4.3km/h 3.6mph /  5.8km/h 98% 0in /  0.0mm
21:21 31.3 °F /  -0.4 °C 30.7 °F /  -0.7 °C 30.3in /  1027.0hPa WSW 3.8mph /  6.1km/h 4mph /  6.4km/h 98% 0in /  0.0mm
21:26 31.3 °F /  -0.4 °C 30.7 °F /  -0.7 °C 30.3in /  1027.0hPa SW 2.9mph /  4.7km/h 4mph /  6.4km/h 98% 0in /  0.0mm
21:31 31.3 °F /  -0.4 °C 30.7 °F /  -0.7 °C 30.3in /  1027.0hPa SW 3.4mph /  5.5km/h 4.3mph /  6.9km/h 98% 0in /  0.0mm
21:36 31.3 °F /  -0.4 °C 30.7 °F /  -0.7 °C 30.3in /  1027.0hPa SW 3.6mph /  5.8km/h 4.7mph /  7.6km/h 98% 0in /  0.0mm
21:41 31.5 °F /  -0.3 °C 30.9 °F /  -0.6 °C 30.3in /  1027.0hPa SW 4.9mph /  7.9km/h 5.4mph /  8.7km/h 98% 0in /  0.0mm
21:46 31.5 °F /  -0.3 °C 30.9 °F /  -0.6 °C 30.3in /  1027.0hPa WSW 5.4mph /  8.7km/h 5.4mph /  8.7km/h 98% 0in /  0.0mm
21:51 31.5 °F /  -0.3 °C 30.9 °F /  -0.6 °C 30.3in /  1027.0hPa WSW 6.5mph /  10.5km/h 6.5mph /  10.5km/h 98% 0in /  0.0mm
21:56 31.5 °F /  -0.3 °C 30.9 °F /  -0.6 °C 30.3in /  1026.0hPa SW 3.1mph /  5.0km/h 6.5mph /  10.5km/h 98% 0in /  0.0mm
22:01 31.5 °F /  -0.3 °C 30.9 °F /  -0.6 °C 30.3in /  1026.0hPa SSW 3.4mph /  5.5km/h 6.5mph /  10.5km/h 98% 0in /  0.0mm
22:06 31.5 °F /  -0.3 °C 30.9 °F /  -0.6 °C 30.3in /  1026.0hPa SSW 3.4mph /  5.5km/h 5.4mph /  8.7km/h 98% 0in /  0.0mm
22:11 31.5 °F /  -0.3 °C 30.9 °F /  -0.6 °C 30.3in /  1027.0hPa SSW 2.5mph /  4.0km/h 4.3mph /  6.9km/h 98% 0in /  0.0mm
22:16 31.5 °F /  -0.3 °C 30.9 °F /  -0.6 °C 30.3in /  1027.0hPa SW 4mph /  6.4km/h 4.9mph /  7.9km/h 98% 0in /  0.0mm
22:21 31.5 °F /  -0.3 °C 30.9 °F /  -0.6 °C 30.3in /  1027.0hPa SW 3.1mph /  5.0km/h 5.4mph /  8.7km/h 98% 0in /  0.0mm
22:26 31.5 °F /  -0.3 °C 30.9 °F /  -0.6 °C 30.3in /  1027.0hPa WSW 4mph /  6.4km/h 5.4mph /  8.7km/h 98% 0in /  0.0mm
22:31 31.5 °F /  -0.3 °C 30.9 °F /  -0.6 °C 30.3in /  1027.0hPa WSW 3.1mph /  5.0km/h 5.6mph /  9.0km/h 98% 0in /  0.0mm
22:36 31.5 °F /  -0.3 °C 30.9 °F /  -0.6 °C 30.3in /  1027.0hPa SW 3.8mph /  6.1km/h 5.6mph /  9.0km/h 98% 0in /  0.0mm
22:41 31.5 °F /  -0.3 °C 30.9 °F /  -0.6 °C 30.4in /  1028.0hPa Calm   4.9mph /  7.9km/h 98% 0in /  0.0mm
22:46 31.5 °F /  -0.3 °C 30.9 °F /  -0.6 °C 30.4in /  1028.0hPa Calm   4.9mph /  7.9km/h 98% 0in /  0.0mm
22:51 31.5 °F /  -0.3 °C 30.9 °F /  -0.6 °C 30.4in /  1028.0hPa Calm   4mph /  6.4km/h 98% 0in /  0.0mm
22:56 31.5 °F /  -0.3 °C 30.9 °F /  -0.6 °C 30.3in /  1027.0hPa SW 4mph /  6.4km/h 4.9mph /  7.9km/h 98% 0in /  0.0mm
23:01 31.3 °F /  -0.4 °C 30.7 °F /  -0.7 °C 30.3in /  1027.0hPa WSW 3.1mph /  5.0km/h 4.9mph /  7.9km/h 98% 0in /  0.0mm
23:06 31.3 °F /  -0.4 °C 30.7 °F /  -0.7 °C 30.3in /  1027.0hPa SW 3.4mph /  5.5km/h 4.3mph /  6.9km/h 98% 0in /  0.0mm
23:11 31.3 °F /  -0.4 °C 30.7 °F /  -0.7 °C 30.3in /  1027.0hPa WSW 4mph /  6.4km/h 4mph /  6.4km/h 98% 0in /  0.0mm
23:16 31.5 °F /  -0.3 °C 30.9 °F /  -0.6 °C 30.3in /  1027.0hPa Calm   4mph /  6.4km/h 98% 0in /  0.0mm
23:21 31.5 °F /  -0.3 °C 30.9 °F /  -0.6 °C 30.3in /  1027.0hPa SSW 3.6mph /  5.8km/h 4.3mph /  6.9km/h 98% 0in /  0.0mm
23:26 31.5 °F /  -0.3 °C 30.9 °F /  -0.6 °C 30.3in /  1027.0hPa SW 3.6mph /  5.8km/h 4.3mph /  6.9km/h 98% 0in /  0.0mm
23:31 31.5 °F /  -0.3 °C 30.9 °F /  -0.6 °C 30.3in /  1027.0hPa WSW 3.1mph /  5.0km/h 4.7mph /  7.6km/h 98% 0in /  0.0mm
23:36 31.5 °F /  -0.3 °C 30.9 °F /  -0.6 °C 30.3in /  1027.0hPa WSW 4.3mph /  6.9km/h 4.7mph /  7.6km/h 98% 0in /  0.0mm
23:41 31.5 °F /  -0.3 °C 30.9 °F /  -0.6 °C 30.3in /  1027.0hPa WSW 5.6mph /  9.0km/h 5.6mph /  9.0km/h 98% 0in /  0.0mm
23:46 31.5 °F /  -0.3 °C 30.9 °F /  -0.6 °C 30.3in /  1027.0hPa WSW 4.3mph /  6.9km/h 5.6mph /  9.0km/h 98% 0in /  0.0mm
23:51 31.5 °F /  -0.3 °C 30.9 °F /  -0.6 °C 30.3in /  1027.0hPa WSW 5.6mph /  9.0km/h 5.8mph /  9.3km/h 98% 0in /  0.0mm
23:56 31.5 °F /  -0.3 °C 30.9 °F /  -0.6 °C 30.3in /  1027.0hPa SW 3.8mph /  6.1km/h 5.8mph /  9.3km/h 98% 0in /  0.0mm
Données Historique de Météo Turbie

Mise a jour : 26/05/2018 05:52:13
Généré par Cumulus 1.9.4 (1099)